Terminal Aerodrome Forecast
Issued by NWS

Home | Current Version | Previous Version | Graphics & Text | Print | Product List | Glossary On
Versions: 1 2 3 4 5 6 7 8 9 10 11 12 13 14 15 16 17 18
000
FTUS43 KGRB 271737
TAFCWA
TAF
KCWA 271737Z 2718/2818 15007KT P6SM FEW040 BKN250
     FM272300 13003KT P6SM SCT200
     FM280500 13003KT P6SM SKC WS009/21025KT
     FM281200 16007KT P6SM SCT035 BKN150
     FM281500 17010KT P6SM BKN035 OVC100 PROB30 2816/2818 3SM TSRA
      OVC030CB=

USA.gov is the U.S. government's official web portal to all federal, state and local government web resources and services.